createdAt,value
2022-10-31T00:01:12.763Z,3.20
2022-10-31T00:15:12.769Z,3.30
2022-10-31T00:29:12.772Z,3.50
2022-10-31T00:43:12.792Z,3.40
2022-10-31T00:57:12.812Z,3.00
2022-10-31T01:11:12.896Z,3.50
2022-10-31T01:25:12.860Z,3.40
2022-10-31T01:39:12.874Z,3.00
2022-10-31T01:53:12.866Z,3.10
2022-10-31T02:07:12.890Z,2.60
2022-10-31T02:21:12.875Z,2.90
2022-10-31T02:35:12.872Z,2.90
2022-10-31T02:49:12.957Z,3.40
2022-10-31T03:03:12.889Z,2.60
2022-10-31T03:17:12.919Z,3.20
2022-10-31T03:31:12.893Z,3.10
2022-10-31T03:45:12.910Z,3.30
2022-10-31T03:59:12.917Z,3.00
2022-10-31T04:13:12.955Z,3.00
2022-10-31T04:27:12.968Z,2.90
2022-10-31T04:41:12.924Z,2.80
2022-10-31T04:55:12.922Z,2.70
2022-10-31T05:09:13.109Z,2.60
2022-10-31T05:23:13.330Z,2.50
2022-10-31T05:37:13.356Z,2.55
2022-10-31T05:52:13.397Z,2.20
2022-10-31T06:07:13.422Z,2.60
2022-10-31T06:22:13.442Z,2.50
2022-10-31T06:37:13.437Z,2.70
2022-10-31T06:52:13.434Z,5.60
2022-10-31T07:07:13.660Z,4.90
2022-10-31T07:22:13.844Z,6.10
2022-10-31T07:37:13.859Z,5.00
2022-10-31T07:52:13.855Z,5.20
2022-10-31T08:07:13.869Z,5.10
2022-10-31T08:22:13.881Z,4.70
2022-10-31T08:37:13.866Z,5.00
2022-10-31T08:52:14.639Z,5.30
2022-10-31T09:07:21.591Z,5.10
2022-10-31T09:22:13.880Z,4.60
2022-10-31T09:37:13.973Z,4.40
2022-10-31T09:52:13.925Z,4.30
2022-10-31T10:07:13.930Z,4.20
2022-10-31T10:22:13.943Z,4.00
2022-10-31T10:37:13.958Z,3.60
2022-10-31T10:52:26.877Z,3.60
2022-10-31T11:07:14.021Z,3.50
2022-10-31T11:22:14.043Z,3.10
2022-10-31T11:37:14.035Z,3.50
2022-10-31T11:52:14.040Z,3.10
2022-10-31T12:07:14.043Z,2.80
2022-10-31T12:22:14.062Z,2.60
2022-10-31T12:37:14.068Z,2.40
2022-10-31T12:52:14.072Z,2.90
2022-10-31T13:07:14.074Z,2.80
2022-10-31T13:23:29.974Z,3.30
2022-10-31T13:39:14.048Z,3.70
2022-10-31T13:55:14.051Z,3.75
2022-10-31T14:11:14.102Z,3.80
2022-10-31T14:26:14.070Z,3.90
2022-10-31T14:41:14.065Z,3.60
2022-10-31T14:56:14.064Z,4.10
2022-10-31T15:11:14.089Z,3.90
2022-10-31T15:26:14.107Z,3.50
2022-10-31T15:41:14.128Z,3.40
2022-10-31T15:56:14.170Z,4.00
2022-10-31T16:12:14.838Z,4.30
2022-10-31T16:27:14.169Z,6.10
2022-10-31T16:42:14.208Z,6.40
2022-10-31T16:56:14.145Z,6.10
2022-10-31T17:10:14.194Z,6.60
2022-10-31T17:24:14.180Z,6.80
2022-10-31T17:38:14.283Z,6.40
2022-10-31T17:52:14.225Z,6.45
2022-10-31T18:06:14.177Z,6.40
2022-10-31T18:20:14.180Z,6.00
2022-10-31T18:34:14.244Z,5.60
2022-10-31T18:48:14.408Z,6.00
2022-10-31T19:02:14.444Z,5.80
2022-10-31T19:16:14.267Z,5.80
2022-10-31T19:30:14.373Z,5.70
2022-10-31T19:44:15.180Z,5.30
2022-10-31T19:58:14.739Z,5.20
2022-10-31T20:12:14.473Z,5.00
2022-10-31T20:26:14.441Z,4.20
2022-10-31T20:40:14.515Z,4.50
2022-10-31T20:54:14.516Z,4.70
2022-10-31T21:08:14.537Z,4.40
2022-10-31T21:22:14.554Z,4.30
2022-10-31T21:36:14.548Z,4.70
2022-10-31T21:50:14.530Z,4.00
2022-10-31T22:04:14.536Z,4.10
2022-10-31T22:18:14.551Z,3.80
2022-10-31T22:32:14.543Z,3.60
2022-10-31T22:46:14.568Z,3.60
2022-10-31T23:00:14.549Z,3.60
2022-10-31T23:14:14.602Z,3.60
2022-10-31T23:28:14.585Z,3.30
2022-10-31T23:42:14.613Z,3.20
2022-10-31T23:56:14.628Z,3.10
